createdAt,value
2019-03-01T00:00:00.579Z,11.20
2019-03-01T00:02:28.972Z,11.20
2019-03-01T00:04:55.793Z,11.20
2019-03-01T00:07:22.359Z,11.20
2019-03-01T00:09:48.947Z,11.20
2019-03-01T00:12:16.621Z,11.20
2019-03-01T00:14:43.275Z,11.20
2019-03-01T00:17:09.822Z,11.20
2019-03-01T00:19:36.532Z,11.20
2019-03-01T00:22:03.056Z,11.20
2019-03-01T00:24:30.041Z,11.20
2019-03-01T00:26:56.736Z,11.20
2019-03-01T00:29:23.546Z,11.20
2019-03-01T00:31:51.251Z,11.00
2019-03-01T00:34:18.149Z,11.20
2019-03-01T00:36:44.900Z,11.20
2019-03-01T00:39:11.750Z,11.20
2019-03-01T00:41:38.854Z,11.20
2019-03-01T00:44:05.528Z,11.20
2019-03-01T00:46:32.144Z,11.10
2019-03-01T00:48:59.870Z,11.10
2019-03-01T00:51:26.603Z,11.10
2019-03-01T00:53:53.604Z,11.10
2019-03-01T00:56:20.206Z,11.10
2019-03-01T00:58:47.184Z,11.10
2019-03-01T01:01:13.740Z,11.10
2019-03-01T01:03:40.538Z,11.10
2019-03-01T01:06:07.196Z,11.10
2019-03-01T01:08:34.022Z,11.10
2019-03-01T01:11:01.000Z,11.10
2019-03-01T01:13:28.786Z,11.10
2019-03-01T01:15:55.349Z,11.10
2019-03-01T01:18:22.292Z,11.10
2019-03-01T01:20:49.153Z,11.10
2019-03-01T01:23:15.744Z,11.10
2019-03-01T01:25:42.429Z,11.10
2019-03-01T01:28:09.071Z,11.10
2019-03-01T01:30:35.969Z,11.10
2019-03-01T01:33:03.519Z,11.10
2019-03-01T01:35:30.088Z,10.90
2019-03-01T01:37:56.756Z,11.10
2019-03-01T01:40:23.423Z,11.10
2019-03-01T01:42:50.058Z,11.10
2019-03-01T01:45:16.661Z,11.10
2019-03-01T01:47:43.325Z,11.10
2019-03-01T01:50:10.221Z,11.10
2019-03-01T01:52:36.965Z,11.10
2019-03-01T01:55:03.594Z,11.00
2019-03-01T01:57:30.521Z,11.00
2019-03-01T01:59:57.179Z,11.00
2019-03-01T02:02:23.737Z,11.00
2019-03-01T02:04:50.329Z,11.00
2019-03-01T02:07:16.886Z,11.00
2019-03-01T02:09:43.431Z,11.00
2019-03-01T02:12:10.459Z,11.00
2019-03-01T02:14:36.999Z,11.00
2019-03-01T02:17:03.857Z,11.00
2019-03-01T02:19:30.477Z,11.00
2019-03-01T02:21:57.098Z,11.00
2019-03-01T02:24:24.017Z,11.00
2019-03-01T02:26:50.675Z,11.00
2019-03-01T02:29:17.542Z,11.00
2019-03-01T02:31:44.229Z,11.00
2019-03-01T02:34:11.114Z,11.00
2019-03-01T02:36:37.769Z,11.00
2019-03-01T02:39:04.395Z,11.00
2019-03-01T02:41:30.978Z,11.00
2019-03-01T02:43:58.108Z,11.00
2019-03-01T02:46:24.823Z,11.00
2019-03-01T02:48:51.365Z,11.00
2019-03-01T02:51:17.940Z,10.90
2019-03-01T02:53:44.567Z,10.90
2019-03-01T02:56:11.196Z,10.90
2019-03-01T02:58:37.799Z,10.90
2019-03-01T03:01:04.477Z,10.90
2019-03-01T03:03:31.092Z,10.90
2019-03-01T03:06:23.208Z,10.90
2019-03-01T03:08:50.449Z,10.90
2019-03-01T03:11:17.066Z,10.90
2019-03-01T03:13:43.842Z,10.90
2019-03-01T03:16:10.556Z,10.90
2019-03-01T03:18:40.205Z,10.90
2019-03-01T03:21:06.734Z,10.90
2019-03-01T03:23:33.327Z,10.80
2019-03-01T03:26:01.823Z,10.80
2019-03-01T03:28:28.636Z,10.80
2019-03-01T03:30:55.569Z,10.40
2019-03-01T03:33:22.270Z,10.80
2019-03-01T03:35:48.994Z,10.80
2019-03-01T03:38:15.573Z,10.80
2019-03-01T03:40:42.321Z,10.80
2019-03-01T03:43:09.020Z,10.80
2019-03-01T03:45:37.541Z,10.70
2019-03-01T03:48:04.261Z,10.70
2019-03-01T03:50:31.372Z,10.70
2019-03-01T03:52:58.227Z,10.70
2019-03-01T03:55:24.835Z,10.70
2019-03-01T03:57:51.464Z,10.70
2019-03-01T04:00:19.404Z,10.70
2019-03-01T04:02:46.107Z,10.70
2019-03-01T04:05:13.093Z,10.70
2019-03-01T04:07:39.727Z,10.60
2019-03-01T04:10:06.365Z,10.60
2019-03-01T04:12:32.976Z,10.60
2019-03-01T04:14:59.584Z,10.60
2019-03-01T04:17:27.977Z,10.60
2019-03-01T04:19:54.658Z,10.60
2019-03-01T04:22:22.309Z,10.60
2019-03-01T04:24:48.897Z,10.60
2019-03-01T04:27:15.721Z,10.50
2019-03-01T04:29:42.424Z,10.50
2019-03-01T04:32:09.141Z,10.50
2019-03-01T04:34:35.855Z,10.50
2019-03-01T04:37:02.545Z,10.50
2019-03-01T04:39:29.444Z,10.50
2019-03-01T04:41:56.105Z,10.50
2019-03-01T04:44:23.170Z,10.50
2019-03-01T04:46:49.835Z,10.40
2019-03-01T04:49:16.609Z,10.40
2019-03-01T04:51:43.148Z,10.40
2019-03-01T04:54:09.699Z,10.40
2019-03-01T04:56:36.362Z,10.40
2019-03-01T04:59:03.068Z,10.40
2019-03-01T05:01:29.748Z,10.40
2019-03-01T05:03:56.354Z,10.40
2019-03-01T05:06:23.210Z,10.20
2019-03-01T05:09:10.465Z,10.30
2019-03-01T05:11:37.075Z,10.30
2019-03-01T05:14:03.699Z,10.30
2019-03-01T05:16:32.271Z,10.30
2019-03-01T05:18:58.749Z,10.30
2019-03-01T05:21:27.178Z,10.30
2019-03-01T05:23:58.172Z,10.30
2019-03-01T05:26:24.886Z,10.30
2019-03-01T05:28:51.476Z,10.20
2019-03-01T05:31:20.112Z,10.20
2019-03-01T05:33:47.001Z,10.20
2019-03-01T05:36:13.932Z,10.20
2019-03-01T05:38:40.716Z,10.20
2019-03-01T05:41:07.608Z,10.20
2019-03-01T05:43:34.382Z,10.20
2019-03-01T05:46:39.066Z,10.10
2019-03-01T05:49:30.157Z,10.20
2019-03-01T05:52:09.203Z,10.10
2019-03-01T05:54:39.422Z,10.10
2019-03-01T05:57:06.153Z,10.10
2019-03-01T05:59:32.751Z,10.10
2019-03-01T06:01:59.704Z,10.10
2019-03-01T06:04:29.147Z,10.10
2019-03-01T06:06:55.732Z,10.10
2019-03-01T06:09:22.374Z,10.10
2019-03-01T06:11:48.964Z,10.10
2019-03-01T06:14:15.590Z,10.00
2019-03-01T06:16:46.887Z,10.00
2019-03-01T06:19:13.738Z,10.00
2019-03-01T06:21:40.433Z,10.00
2019-03-01T06:24:07.060Z,10.00
2019-03-01T06:26:33.691Z,10.00
2019-03-01T06:29:01.463Z,10.00
2019-03-01T06:31:28.097Z,10.00
2019-03-01T06:33:55.912Z,10.00
2019-03-01T06:36:23.844Z,10.00
2019-03-01T06:39:09.089Z,10.00
2019-03-01T06:41:36.029Z,10.00
2019-03-01T06:44:02.631Z,9.90
2019-03-01T06:46:29.330Z,9.90
2019-03-01T06:49:00.522Z,9.90
2019-03-01T06:51:30.313Z,10.00
2019-03-01T06:53:57.359Z,9.90
2019-03-01T06:56:36.835Z,9.90
2019-03-01T06:59:08.201Z,9.90
2019-03-01T07:01:39.205Z,9.90
2019-03-01T07:04:17.050Z,9.90
2019-03-01T07:06:43.754Z,9.90
2019-03-01T07:09:10.476Z,9.90
2019-03-01T07:11:37.203Z,9.90
2019-03-01T07:14:06.193Z,9.90
2019-03-01T07:16:32.796Z,9.80
2019-03-01T07:18:59.474Z,9.80
2019-03-01T07:21:27.061Z,9.80
2019-03-01T07:23:55.488Z,9.80
2019-03-01T07:26:22.391Z,9.90
2019-03-01T07:28:49.242Z,9.80
2019-03-01T07:31:17.102Z,9.80
2019-03-01T07:33:43.745Z,9.80
2019-03-01T07:36:10.420Z,9.80
2019-03-01T07:38:37.029Z,9.80
2019-03-01T07:41:03.774Z,9.80
2019-03-01T07:43:31.987Z,9.80
2019-03-01T07:45:59.428Z,9.80
2019-03-01T07:48:26.448Z,9.80
2019-03-01T07:50:55.235Z,9.80
2019-03-01T07:53:21.534Z,9.60
2019-03-01T07:55:48.357Z,9.80
2019-03-01T07:58:16.903Z,9.80
2019-03-01T08:00:47.260Z,9.70
2019-03-01T08:03:15.137Z,9.70
2019-03-01T08:05:42.640Z,9.70
2019-03-01T08:08:09.184Z,9.70
2019-03-01T08:10:35.930Z,9.70
2019-03-01T08:13:02.539Z,9.80
2019-03-01T08:15:29.112Z,9.70
2019-03-01T08:17:56.054Z,9.60
2019-03-01T08:20:22.874Z,9.70
2019-03-01T08:22:51.369Z,9.70
2019-03-01T08:25:23.242Z,9.70
2019-03-01T08:27:48.436Z,9.70
2019-03-01T08:30:15.375Z,9.60
2019-03-01T08:32:42.159Z,9.70
2019-03-01T08:35:11.501Z,9.70
2019-03-01T08:37:38.384Z,9.70
2019-03-01T08:40:05.009Z,9.70
2019-03-01T08:42:32.730Z,9.70
2019-03-01T08:45:00.297Z,9.70
2019-03-01T08:47:27.105Z,9.60
2019-03-01T08:49:53.803Z,9.60
2019-03-01T08:52:20.853Z,9.60
2019-03-01T08:54:51.012Z,9.60
2019-03-01T08:57:17.785Z,9.60
2019-03-01T08:59:44.528Z,9.70
2019-03-01T09:02:12.046Z,9.60
2019-03-01T09:04:38.816Z,9.60
2019-03-01T09:07:05.406Z,9.60
2019-03-01T09:09:32.047Z,9.60
2019-03-01T09:12:00.549Z,9.60
2019-03-01T09:14:27.632Z,9.60
2019-03-01T09:16:54.247Z,9.60
2019-03-01T09:19:22.277Z,9.60
2019-03-01T09:21:50.916Z,9.60
2019-03-01T09:24:17.805Z,9.60
2019-03-01T09:26:44.675Z,9.60
2019-03-01T09:29:13.010Z,9.60
2019-03-01T09:31:40.010Z,9.60
2019-03-01T09:34:06.739Z,9.60
2019-03-01T09:36:43.425Z,9.60
2019-03-01T09:39:10.118Z,9.60
2019-03-01T09:41:40.539Z,9.60
2019-03-01T09:44:05.242Z,9.60
2019-03-01T09:46:32.338Z,9.60
2019-03-01T09:48:59.070Z,9.60
2019-03-01T09:51:27.420Z,9.60
2019-03-01T09:53:54.458Z,9.60
2019-03-01T09:56:24.379Z,9.60
2019-03-01T09:58:51.466Z,9.60
2019-03-01T10:01:19.379Z,9.20
2019-03-01T10:03:46.405Z,9.60
2019-03-01T10:06:13.026Z,9.60
2019-03-01T10:08:40.072Z,9.60
2019-03-01T10:11:06.871Z,9.60
2019-03-01T10:16:01.312Z,9.60
2019-03-01T10:18:27.952Z,9.70
2019-03-01T10:20:54.601Z,9.60
2019-03-01T10:23:21.458Z,9.60
2019-03-01T10:25:48.053Z,9.60
2019-03-01T10:28:14.629Z,9.50
2019-03-01T10:30:41.582Z,9.60
2019-03-01T10:33:08.186Z,9.60
2019-03-01T10:35:34.729Z,9.70
2019-03-01T10:38:01.303Z,9.40
2019-03-01T10:40:27.907Z,9.70
2019-03-01T10:42:54.754Z,9.70
2019-03-01T10:45:21.511Z,9.60
2019-03-01T10:47:48.091Z,9.70
2019-03-01T10:50:14.623Z,9.70
2019-03-01T10:52:42.291Z,9.70
2019-03-01T10:55:08.966Z,9.70
2019-03-01T10:57:35.555Z,9.70
2019-03-01T11:00:02.257Z,9.80
2019-03-01T11:02:29.521Z,9.80
2019-03-01T11:04:56.091Z,9.80
2019-03-01T11:07:22.667Z,9.80
2019-03-01T11:09:51.228Z,9.80
2019-03-01T11:12:17.978Z,9.80
2019-03-01T11:14:46.251Z,9.80
2019-03-01T11:17:14.698Z,9.80
2019-03-01T11:19:41.308Z,9.80
2019-03-01T11:22:07.912Z,9.90
2019-03-01T11:24:36.661Z,9.80
2019-03-01T11:27:12.587Z,9.90
2019-03-01T11:29:31.624Z,9.90
2019-03-01T11:31:58.240Z,9.90
2019-03-01T11:34:25.238Z,9.90
2019-03-01T11:36:52.009Z,9.90
2019-03-01T11:39:19.037Z,9.90
2019-03-01T11:41:46.735Z,9.90
2019-03-01T11:44:13.343Z,9.90
2019-03-01T11:46:40.019Z,9.90
2019-03-01T11:49:06.710Z,9.90
2019-03-01T11:51:33.792Z,9.60
2019-03-01T11:54:00.612Z,10.00
2019-03-01T11:56:27.323Z,10.00
2019-03-01T11:58:53.941Z,10.00
2019-03-01T12:01:20.638Z,10.00
2019-03-01T12:03:47.214Z,10.00
2019-03-01T12:06:13.815Z,10.00
2019-03-01T12:08:40.403Z,10.00
2019-03-01T12:11:07.536Z,10.00
2019-03-01T12:13:35.634Z,10.00
2019-03-01T12:16:02.306Z,9.90
2019-03-01T12:18:29.020Z,10.00
2019-03-01T12:20:55.620Z,10.00
2019-03-01T12:23:22.376Z,10.00
2019-03-01T12:25:49.059Z,10.00
2019-03-01T12:28:15.644Z,10.00
2019-03-01T12:30:43.381Z,10.00
2019-03-01T12:33:10.331Z,10.00
2019-03-01T12:35:37.153Z,10.00
2019-03-01T12:38:04.056Z,10.00
2019-03-01T12:40:30.643Z,10.10
2019-03-01T12:42:59.243Z,10.10
2019-03-01T12:45:25.763Z,10.10
2019-03-01T12:47:53.633Z,10.10
2019-03-01T12:50:20.435Z,10.10
2019-03-01T12:55:12.309Z,10.10
2019-03-01T12:57:39.003Z,10.10
2019-03-01T13:00:06.025Z,10.10
2019-03-01T13:02:32.609Z,10.10
2019-03-01T13:04:59.209Z,10.10
2019-03-01T13:07:25.904Z,10.10
2019-03-01T13:09:52.829Z,10.10
2019-03-01T13:12:22.339Z,10.10
2019-03-01T13:14:48.301Z,10.10
2019-03-01T13:17:14.932Z,10.10
2019-03-01T13:19:43.371Z,10.10
2019-03-01T13:22:09.950Z,10.10
2019-03-01T13:24:36.615Z,10.20
2019-03-01T13:27:03.767Z,10.20
2019-03-01T13:29:30.584Z,10.20
2019-03-01T13:31:57.739Z,10.20
2019-03-01T13:34:24.477Z,10.20
2019-03-01T13:36:51.100Z,10.20
2019-03-01T13:39:18.379Z,10.20
2019-03-01T13:41:44.922Z,10.20
2019-03-01T13:44:11.545Z,10.20
2019-03-01T13:46:39.772Z,10.20
2019-03-01T13:49:07.300Z,10.20
2019-03-01T13:51:35.261Z,10.20
2019-03-01T13:54:02.150Z,10.20
2019-03-01T13:56:28.998Z,10.20
2019-03-01T13:58:55.586Z,10.20
2019-03-01T14:01:23.719Z,10.20
2019-03-01T14:03:51.383Z,10.30
2019-03-01T14:06:17.994Z,10.30
2019-03-01T14:08:44.790Z,10.30
2019-03-01T14:11:15.296Z,10.30
2019-03-01T14:13:40.058Z,10.30
2019-03-01T14:16:06.703Z,10.30
2019-03-01T14:18:36.520Z,10.30
2019-03-01T14:21:03.829Z,10.30
2019-03-01T14:23:30.250Z,10.30
2019-03-01T14:25:56.912Z,10.30
2019-03-01T14:28:23.433Z,10.30
2019-03-01T14:30:51.826Z,10.30
2019-03-01T14:33:18.610Z,10.30
2019-03-01T14:35:46.394Z,10.30
2019-03-01T14:38:13.030Z,10.30
2019-03-01T14:40:39.774Z,10.30
2019-03-01T14:43:06.558Z,10.40
2019-03-01T14:45:33.350Z,10.40
2019-03-01T14:48:00.803Z,10.40
2019-03-01T14:50:29.864Z,10.40
2019-03-01T14:52:58.355Z,10.40
2019-03-01T14:55:27.611Z,10.40
2019-03-01T15:00:26.704Z,10.40
2019-03-01T15:02:53.340Z,10.40
2019-03-01T15:05:20.321Z,10.40
2019-03-01T15:07:46.918Z,10.40
2019-03-01T15:10:13.529Z,10.40
2019-03-01T15:12:40.220Z,10.40
2019-03-01T15:15:06.869Z,10.40
2019-03-01T15:17:33.854Z,10.40
2019-03-01T15:20:00.874Z,10.40
2019-03-01T15:22:27.517Z,10.40
2019-03-01T15:24:54.591Z,10.40
2019-03-01T15:27:21.099Z,10.40
2019-03-01T15:29:48.081Z,10.40
2019-03-01T15:32:15.842Z,10.40
2019-03-01T15:34:42.531Z,10.40
2019-03-01T15:37:09.236Z,10.40
2019-03-01T15:39:35.861Z,10.40
2019-03-01T15:42:02.486Z,10.40
2019-03-01T15:44:29.081Z,10.40
2019-03-01T15:46:55.815Z,10.40
2019-03-01T15:49:23.650Z,10.40
2019-03-01T15:51:50.454Z,10.40
2019-03-01T15:54:17.448Z,10.40
2019-03-01T15:56:44.106Z,10.40
2019-03-01T15:59:10.744Z,10.40
2019-03-01T16:01:38.051Z,10.40
2019-03-01T16:04:04.710Z,10.40
2019-03-01T16:06:31.331Z,10.40
2019-03-01T16:08:57.966Z,10.40
2019-03-01T16:11:24.916Z,10.40
2019-03-01T16:13:51.785Z,10.40
2019-03-01T16:16:18.536Z,10.40
2019-03-01T16:18:45.490Z,10.40
2019-03-01T16:21:12.835Z,10.40
2019-03-01T16:23:39.558Z,10.40
2019-03-01T16:26:06.102Z,10.40
2019-03-01T16:28:34.051Z,10.40
2019-03-01T16:31:01.228Z,10.40
2019-03-01T16:33:29.821Z,10.40
2019-03-01T16:35:56.197Z,10.40
2019-03-01T16:38:22.943Z,10.40
2019-03-01T16:40:49.666Z,10.40
2019-03-01T16:43:16.292Z,10.40
2019-03-01T16:45:43.036Z,10.40
2019-03-01T16:48:10.004Z,10.40
2019-03-01T16:50:36.860Z,10.40
2019-03-01T16:53:04.598Z,10.40
2019-03-01T16:55:31.976Z,10.40
2019-03-01T16:58:06.945Z,10.40
2019-03-01T17:00:30.494Z,10.30
2019-03-01T17:02:58.149Z,10.30
2019-03-01T17:05:25.070Z,10.30
2019-03-01T17:07:51.651Z,10.30
2019-03-01T17:10:19.428Z,10.30
2019-03-01T17:12:48.866Z,10.30
2019-03-01T17:15:14.780Z,10.30
2019-03-01T17:17:41.357Z,10.30
2019-03-01T17:20:07.927Z,10.30
2019-03-01T17:22:36.412Z,10.30
2019-03-01T17:25:02.945Z,10.30
2019-03-01T17:27:29.605Z,10.30
2019-03-01T17:29:56.164Z,10.30
2019-03-01T17:32:22.736Z,10.30
2019-03-01T17:34:49.508Z,10.30
2019-03-01T17:37:15.969Z,10.30
2019-03-01T17:39:42.540Z,10.30
2019-03-01T17:42:09.166Z,10.30
2019-03-01T17:44:35.763Z,10.20
2019-03-01T17:47:02.538Z,10.20
2019-03-01T17:49:29.702Z,10.20
2019-03-01T17:51:57.823Z,10.20
2019-03-01T17:54:24.383Z,10.20
2019-03-01T17:56:53.982Z,10.20
2019-03-01T17:59:19.412Z,10.20
2019-03-01T18:01:45.969Z,10.10
2019-03-01T18:04:12.531Z,10.20
2019-03-01T18:06:41.441Z,9.80
2019-03-01T18:09:08.121Z,10.20
2019-03-01T18:11:34.809Z,10.20
2019-03-01T18:14:01.736Z,10.20
2019-03-01T18:16:30.617Z,10.20
2019-03-01T18:18:57.264Z,10.10
2019-03-01T18:21:24.104Z,10.10
2019-03-01T18:26:29.670Z,10.40
2019-03-01T18:28:56.264Z,10.10
2019-03-01T18:31:23.203Z,10.00
2019-03-01T18:33:53.805Z,10.10
2019-03-01T18:36:19.527Z,10.10
2019-03-01T18:38:46.230Z,10.10
2019-03-01T18:41:14.100Z,10.10
2019-03-01T18:43:40.771Z,10.10
2019-03-01T18:46:07.599Z,10.10
2019-03-01T18:48:34.301Z,10.10
2019-03-01T18:51:03.439Z,10.10
2019-03-01T18:53:29.725Z,10.00
2019-03-01T18:55:57.013Z,10.00
2019-03-01T18:58:23.681Z,10.00
2019-03-01T19:00:50.544Z,10.00
2019-03-01T19:03:17.288Z,10.00
2019-03-01T19:05:43.971Z,10.00
2019-03-01T19:08:10.596Z,10.00
2019-03-01T19:10:37.210Z,10.00
2019-03-01T19:13:03.851Z,10.00
2019-03-01T19:15:31.232Z,10.00
2019-03-01T19:17:57.930Z,10.00
2019-03-01T19:20:24.629Z,10.00
2019-03-01T19:22:51.454Z,10.00
2019-03-01T19:25:18.243Z,9.90
2019-03-01T19:27:47.072Z,10.00
2019-03-01T19:30:15.849Z,9.90
2019-03-01T19:32:42.924Z,9.90
2019-03-01T19:35:09.814Z,9.90
2019-03-01T19:37:36.437Z,9.90
2019-03-01T19:40:03.060Z,9.90
2019-03-01T19:42:32.809Z,9.90
2019-03-01T19:45:00.665Z,9.90
2019-03-01T19:47:28.128Z,9.90
2019-03-01T19:49:54.808Z,9.90
2019-03-01T19:52:21.625Z,9.90
2019-03-01T19:54:48.440Z,9.80
2019-03-01T19:57:15.313Z,9.80
2019-03-01T19:59:42.018Z,9.80
2019-03-01T20:02:09.779Z,9.80
2019-03-01T20:04:36.943Z,9.80
2019-03-01T20:07:03.539Z,9.80
2019-03-01T20:09:30.424Z,9.80
2019-03-01T20:11:59.205Z,9.80
2019-03-01T20:14:25.753Z,9.80
2019-03-01T20:16:54.896Z,9.80
2019-03-01T20:19:22.252Z,9.70
2019-03-01T20:21:48.973Z,9.80
2019-03-01T20:24:15.569Z,9.70
2019-03-01T20:26:42.198Z,9.70
2019-03-01T20:29:10.603Z,9.90
2019-03-01T20:31:40.528Z,9.70
2019-03-01T20:34:05.677Z,9.70
2019-03-01T20:36:32.268Z,9.70
2019-03-01T20:38:59.427Z,9.70
2019-03-01T20:41:26.219Z,9.70
2019-03-01T20:43:53.368Z,9.70
2019-03-01T20:46:20.102Z,9.70
2019-03-01T20:48:46.963Z,9.70
2019-03-01T20:51:15.300Z,9.60
2019-03-01T20:56:09.919Z,9.60
2019-03-01T20:58:39.646Z,9.60
2019-03-01T21:01:05.367Z,9.60
2019-03-01T21:03:32.060Z,9.60
2019-03-01T21:06:01.754Z,9.60
2019-03-01T21:08:29.123Z,9.60
2019-03-01T21:10:55.495Z,9.60
2019-03-01T21:13:22.061Z,9.60
2019-03-01T21:15:48.656Z,9.60
2019-03-01T21:18:15.374Z,9.60
2019-03-01T21:20:42.026Z,9.60
2019-03-01T21:23:11.736Z,9.60
2019-03-01T21:25:39.698Z,9.60
2019-03-01T21:28:08.162Z,9.60
2019-03-01T21:30:41.066Z,9.50
2019-03-01T21:33:08.206Z,9.50
2019-03-01T21:35:34.783Z,9.50
2019-03-01T21:38:01.364Z,9.50
2019-03-01T21:40:27.957Z,9.50
2019-03-01T21:42:57.313Z,9.50
2019-03-01T21:45:23.248Z,9.50
2019-03-01T21:47:49.983Z,9.50
2019-03-01T21:50:16.591Z,9.50
2019-03-01T21:52:43.147Z,9.50
2019-03-01T21:55:09.809Z,9.50
2019-03-01T21:57:37.002Z,9.50
2019-03-01T22:00:04.155Z,9.50
2019-03-01T22:02:31.164Z,9.50
2019-03-01T22:04:59.679Z,9.50
2019-03-01T22:07:26.182Z,9.50
2019-03-01T22:09:53.184Z,9.50
2019-03-01T22:12:20.923Z,9.40
2019-03-01T22:14:49.046Z,9.50
2019-03-01T22:17:15.862Z,9.40
2019-03-01T22:19:43.013Z,9.40
2019-03-01T22:22:09.645Z,9.40
2019-03-01T22:24:36.256Z,9.40
2019-03-01T22:27:02.973Z,9.40
2019-03-01T22:29:29.719Z,9.40
2019-03-01T22:31:56.305Z,9.40
2019-03-01T22:34:23.330Z,9.40
2019-03-01T22:36:52.847Z,9.40
2019-03-01T22:39:18.908Z,9.40
2019-03-01T22:41:45.573Z,9.40
2019-03-01T22:44:12.188Z,9.40
2019-03-01T22:46:40.181Z,9.40
2019-03-01T22:49:06.905Z,9.40
2019-03-01T22:51:35.311Z,9.40
2019-03-01T22:54:01.879Z,9.40
2019-03-01T22:56:28.846Z,9.40
2019-03-01T22:58:55.464Z,9.40
2019-03-01T23:01:25.228Z,9.40
2019-03-01T23:03:54.873Z,9.50
2019-03-01T23:06:20.621Z,9.40
2019-03-01T23:08:47.276Z,9.40
2019-03-01T23:11:15.238Z,9.40
2019-03-01T23:13:42.181Z,9.40
2019-03-01T23:16:10.038Z,9.30
2019-03-01T23:18:40.506Z,9.30
2019-03-01T23:21:06.202Z,9.30
2019-03-01T23:23:32.824Z,9.30
2019-03-01T23:25:59.457Z,9.30
2019-03-01T23:28:26.104Z,9.30
2019-03-01T23:30:52.610Z,9.30
2019-03-01T23:33:19.194Z,9.20
2019-03-01T23:35:45.927Z,9.30
2019-03-01T23:38:14.907Z,9.30
2019-03-01T23:40:41.464Z,9.40
2019-03-01T23:43:08.136Z,9.30
2019-03-01T23:45:34.881Z,9.30
2019-03-01T23:48:01.570Z,9.30
2019-03-01T23:50:31.602Z,9.30
2019-03-01T23:52:58.703Z,9.30
2019-03-01T23:55:25.601Z,9.30
2019-03-01T23:57:52.763Z,9.30
